createdAt,value
2023-01-17T00:02:13.883Z,4.76
2023-01-17T00:05:00.669Z,4.73
2023-01-17T00:07:47.563Z,4.78
2023-01-17T00:10:18.974Z,4.63
2023-01-17T00:12:49.194Z,4.58
2023-01-17T00:15:19.715Z,4.61
2023-01-17T00:17:48.672Z,4.68
2023-01-17T00:20:38.237Z,4.75
2023-01-17T00:23:27.020Z,4.75
2023-01-17T00:26:04.334Z,4.71
2023-01-17T00:28:34.773Z,4.71
2023-01-17T00:31:02.293Z,4.65
2023-01-17T00:33:29.273Z,4.60
2023-01-17T00:35:59.479Z,4.55
2023-01-17T00:38:29.186Z,4.42
2023-01-17T00:41:01.614Z,4.31
2023-01-17T00:43:49.202Z,4.27
2023-01-17T00:46:35.088Z,4.24
2023-01-17T00:49:20.869Z,4.20
2023-01-17T00:52:07.978Z,4.13
2023-01-17T00:54:53.307Z,4.11
2023-01-17T00:57:38.547Z,4.05
2023-01-17T01:00:26.015Z,4.03
2023-01-17T01:03:11.239Z,3.94
2023-01-17T01:05:57.001Z,4.03
2023-01-17T01:08:46.714Z,3.94
2023-01-17T01:11:35.162Z,3.93
2023-01-17T01:14:20.881Z,3.89
2023-01-17T01:17:06.211Z,3.89
2023-01-17T01:19:51.911Z,3.90
2023-01-17T01:22:37.847Z,3.80
2023-01-17T01:25:25.534Z,3.78
2023-01-17T01:28:10.788Z,3.77
2023-01-17T01:30:56.226Z,3.78
2023-01-17T01:33:23.002Z,3.89
2023-01-17T01:35:53.677Z,3.83
2023-01-17T01:38:24.333Z,3.77
2023-01-17T01:40:57.293Z,3.78
2023-01-17T01:43:43.539Z,3.83
2023-01-17T01:46:16.215Z,4.01
2023-01-17T01:48:51.943Z,3.96
2023-01-17T01:51:24.921Z,4.02
2023-01-17T01:53:59.743Z,4.11
2023-01-17T01:56:32.688Z,4.06
2023-01-17T01:59:05.385Z,4.11
2023-01-17T02:01:33.732Z,4.05
2023-01-17T02:04:03.180Z,4.04
2023-01-17T02:06:37.148Z,3.92
2023-01-17T02:09:10.021Z,3.96
2023-01-17T02:11:41.958Z,3.92
2023-01-17T02:14:10.017Z,3.86
2023-01-17T02:16:56.897Z,3.85
2023-01-17T02:20:01.280Z,3.79
2023-01-17T02:23:15.123Z,3.72
2023-01-17T02:26:15.502Z,3.66
2023-01-17T02:29:19.144Z,3.56
2023-01-17T02:31:56.370Z,3.50
2023-01-17T02:34:37.120Z,3.46
2023-01-17T02:37:15.607Z,3.46
2023-01-17T02:39:54.194Z,3.44
2023-01-17T02:42:32.619Z,3.45
2023-01-17T02:45:03.578Z,3.40
2023-01-17T02:47:33.519Z,3.38
2023-01-17T02:50:09.856Z,3.37
2023-01-17T02:52:59.339Z,3.41
2023-01-17T02:55:48.689Z,3.47
2023-01-17T02:58:33.572Z,3.51
2023-01-17T03:01:20.246Z,3.67
2023-01-17T03:03:58.837Z,3.76
2023-01-17T03:06:36.354Z,3.82
2023-01-17T03:09:06.520Z,3.86
2023-01-17T03:11:34.445Z,3.92
2023-01-17T03:14:02.432Z,4.00
2023-01-17T03:16:34.153Z,4.04
2023-01-17T03:19:03.578Z,4.09
2023-01-17T03:21:31.577Z,4.16
2023-01-17T03:23:59.454Z,4.12
2023-01-17T03:26:27.371Z,4.11
2023-01-17T03:28:55.333Z,4.10
2023-01-17T03:31:23.210Z,4.15
2023-01-17T03:33:51.376Z,4.25
2023-01-17T03:36:20.612Z,4.29
2023-01-17T03:38:48.578Z,4.30
2023-01-17T03:41:16.555Z,4.28
2023-01-17T03:43:44.496Z,4.26
2023-01-17T03:46:24.207Z,4.37
2023-01-17T03:48:53.408Z,4.39
2023-01-17T03:51:22.745Z,4.43
2023-01-17T03:53:51.926Z,4.44
2023-01-17T03:56:19.971Z,4.47
2023-01-17T03:58:47.948Z,4.48
2023-01-17T04:01:16.035Z,4.43
2023-01-17T04:03:44.039Z,4.46
2023-01-17T04:06:12.037Z,4.48
2023-01-17T04:08:41.655Z,4.54
2023-01-17T04:11:09.420Z,4.45
2023-01-17T04:13:37.380Z,4.56
2023-01-17T04:16:06.298Z,4.56
2023-01-17T04:18:34.224Z,4.54
2023-01-17T04:21:02.095Z,4.49
2023-01-17T04:23:30.237Z,4.52
2023-01-17T04:25:59.492Z,4.56
2023-01-17T04:28:27.423Z,4.60
2023-01-17T04:30:59.861Z,4.61
2023-01-17T04:33:27.939Z,4.62
2023-01-17T04:35:56.194Z,4.64
2023-01-17T04:38:24.421Z,4.53
2023-01-17T04:40:52.637Z,4.50
2023-01-17T04:43:21.917Z,4.41
2023-01-17T04:45:57.989Z,4.29
2023-01-17T04:48:27.142Z,4.18
2023-01-17T04:51:00.761Z,4.14
2023-01-17T04:53:29.090Z,4.17
2023-01-17T04:55:57.261Z,4.10
2023-01-17T04:58:26.618Z,4.10
2023-01-17T05:00:54.887Z,4.05
2023-01-17T05:03:24.272Z,4.13
2023-01-17T05:05:52.327Z,4.12
2023-01-17T05:08:20.481Z,4.10
2023-01-17T05:10:48.812Z,4.12
2023-01-17T05:13:18.431Z,4.10
2023-01-17T05:15:47.938Z,4.16
2023-01-17T05:18:17.755Z,4.21
2023-01-17T05:20:46.247Z,4.28
2023-01-17T05:23:14.163Z,4.29
2023-01-17T05:25:44.175Z,4.34
2023-01-17T05:28:13.056Z,4.33
2023-01-17T05:30:41.275Z,4.33
2023-01-17T05:33:11.232Z,4.30
2023-01-17T05:35:39.637Z,4.31
2023-01-17T05:38:07.581Z,4.30
2023-01-17T05:40:36.250Z,4.34
2023-01-17T05:43:04.825Z,4.33
2023-01-17T05:45:34.637Z,4.39
2023-01-17T05:48:03.757Z,4.42
2023-01-17T05:50:36.361Z,4.44
2023-01-17T05:53:07.456Z,4.41
2023-01-17T05:55:36.430Z,4.43
2023-01-17T05:58:05.244Z,4.49
2023-01-17T06:00:34.042Z,4.49
2023-01-17T06:03:03.281Z,4.47
2023-01-17T06:05:32.971Z,4.46
2023-01-17T06:08:00.798Z,4.46
2023-01-17T06:10:29.404Z,4.40
2023-01-17T06:13:06.824Z,4.39
2023-01-17T06:15:37.537Z,4.40
2023-01-17T06:18:07.167Z,4.40
2023-01-17T06:20:36.954Z,4.41
2023-01-17T06:23:07.572Z,4.45
2023-01-17T06:25:38.831Z,4.42
2023-01-17T06:28:07.730Z,4.44
2023-01-17T06:30:35.802Z,4.43
2023-01-17T06:33:04.219Z,4.42
2023-01-17T06:35:32.530Z,4.39
2023-01-17T06:38:01.922Z,4.39
2023-01-17T06:40:31.392Z,4.44
2023-01-17T06:43:01.597Z,4.40
2023-01-17T06:45:30.721Z,4.40
2023-01-17T06:47:59.746Z,4.35
2023-01-17T06:50:28.244Z,4.33
2023-01-17T06:52:57.905Z,4.34
2023-01-17T06:55:28.766Z,4.32
2023-01-17T06:57:57.094Z,4.28
2023-01-17T07:00:25.520Z,4.29
2023-01-17T07:02:53.988Z,4.28
2023-01-17T07:05:22.141Z,4.28
2023-01-17T07:07:50.036Z,4.25
2023-01-17T07:10:18.236Z,4.28
2023-01-17T07:12:47.852Z,4.36
2023-01-17T07:15:15.745Z,4.30
2023-01-17T07:17:43.748Z,4.34
2023-01-17T07:20:13.490Z,4.33
2023-01-17T07:22:45.282Z,4.34
2023-01-17T07:25:13.597Z,4.32
2023-01-17T07:27:41.560Z,4.38
2023-01-17T07:30:13.392Z,4.36
2023-01-17T07:32:41.393Z,4.32
2023-01-17T07:35:10.273Z,4.32
2023-01-17T07:37:39.050Z,4.34
2023-01-17T07:40:08.523Z,4.37
2023-01-17T07:42:36.497Z,4.37
2023-01-17T07:45:04.892Z,4.39
2023-01-17T07:47:34.452Z,4.38
2023-01-17T07:50:02.828Z,4.41
2023-01-17T07:52:30.851Z,4.42
2023-01-17T07:54:59.051Z,4.42
2023-01-17T07:57:27.075Z,4.43
2023-01-17T07:59:55.025Z,4.48
2023-01-17T08:02:25.040Z,4.47
2023-01-17T08:04:54.295Z,4.45
2023-01-17T08:07:22.330Z,4.44
2023-01-17T08:09:50.596Z,4.48
2023-01-17T08:12:18.874Z,4.48
2023-01-17T08:14:46.849Z,4.46
2023-01-17T08:17:17.837Z,4.47
2023-01-17T08:19:45.835Z,4.50
2023-01-17T08:22:15.115Z,4.50
2023-01-17T08:24:43.137Z,4.54
2023-01-17T08:27:11.211Z,4.50
2023-01-17T08:29:41.990Z,4.59
2023-01-17T08:32:10.046Z,4.61
2023-01-17T08:34:38.054Z,4.55
2023-01-17T08:37:06.018Z,4.60
2023-01-17T08:39:35.353Z,4.47
2023-01-17T08:42:03.299Z,4.47
2023-01-17T08:44:31.259Z,4.47
2023-01-17T08:46:59.308Z,4.51
2023-01-17T08:49:29.358Z,4.50
2023-01-17T08:51:57.983Z,4.48
2023-01-17T08:54:25.934Z,4.52
2023-01-17T08:56:55.676Z,4.52
2023-01-17T08:59:23.744Z,4.54
2023-01-17T09:01:52.538Z,4.55
2023-01-17T09:04:20.709Z,4.59
2023-01-17T09:06:48.822Z,4.66
2023-01-17T09:09:17.600Z,4.65
2023-01-17T09:11:45.607Z,4.62
2023-01-17T09:14:15.541Z,4.64
2023-01-17T09:16:43.589Z,4.65
2023-01-17T09:19:11.567Z,4.76
2023-01-17T09:21:39.547Z,4.71
2023-01-17T09:24:08.143Z,4.69
2023-01-17T09:26:36.491Z,4.65
2023-01-17T09:29:04.627Z,4.66
2023-01-17T09:31:34.002Z,4.66
2023-01-17T09:34:02.824Z,4.49
2023-01-17T09:36:33.852Z,4.25
2023-01-17T09:39:03.470Z,4.12
2023-01-17T09:41:33.685Z,4.06
2023-01-17T09:44:14.292Z,4.11
2023-01-17T09:46:49.298Z,4.20
2023-01-17T09:49:35.666Z,4.36
2023-01-17T09:52:05.747Z,4.49
2023-01-17T09:54:41.495Z,4.61
2023-01-17T09:57:27.367Z,4.54
2023-01-17T10:00:07.722Z,4.54
2023-01-17T10:03:00.741Z,4.62
2023-01-17T10:05:56.575Z,4.65
2023-01-17T10:08:47.034Z,4.67
2023-01-17T10:11:39.715Z,4.76
2023-01-17T10:14:47.298Z,4.81
2023-01-17T10:17:31.029Z,4.72
2023-01-17T10:20:20.169Z,4.51
2023-01-17T10:23:17.002Z,4.49
2023-01-17T10:25:49.883Z,4.37
2023-01-17T10:28:27.631Z,4.29
2023-01-17T10:31:04.469Z,4.18
2023-01-17T10:33:41.483Z,4.04
2023-01-17T10:36:20.560Z,4.00
2023-01-17T10:38:53.122Z,3.94
2023-01-17T10:41:29.436Z,4.03
2023-01-17T10:44:11.391Z,4.15
2023-01-17T10:46:46.372Z,4.21
2023-01-17T10:49:20.906Z,4.19
2023-01-17T10:52:20.195Z,4.19
2023-01-17T10:55:18.344Z,4.21
2023-01-17T10:57:49.461Z,4.29
2023-01-17T11:00:43.930Z,4.06
2023-01-17T11:03:14.442Z,4.08
2023-01-17T11:05:44.511Z,4.15
2023-01-17T11:08:15.685Z,4.25
2023-01-17T11:10:47.046Z,4.16
2023-01-17T11:13:29.834Z,4.18
2023-01-17T11:16:02.243Z,4.07
2023-01-17T11:18:34.142Z,3.98
2023-01-17T11:21:15.223Z,3.85
2023-01-17T11:23:47.983Z,3.72
2023-01-17T11:26:28.352Z,3.60
2023-01-17T11:29:17.216Z,3.37
2023-01-17T11:31:45.178Z,3.19
2023-01-17T11:34:19.435Z,2.60
2023-01-17T11:36:47.419Z,2.51
2023-01-17T11:39:29.982Z,2.45
2023-01-17T11:41:58.232Z,2.42
2023-01-17T11:44:29.232Z,2.34
2023-01-17T11:47:19.976Z,2.55
2023-01-17T11:49:50.499Z,2.70
2023-01-17T11:52:25.196Z,2.93
2023-01-17T11:54:56.513Z,2.95
2023-01-17T11:57:28.722Z,2.89
2023-01-17T12:00:19.316Z,2.89
2023-01-17T12:03:16.069Z,3.13
2023-01-17T12:05:59.853Z,3.26
2023-01-17T12:08:56.400Z,3.29
2023-01-17T12:11:39.546Z,3.38
2023-01-17T12:14:22.622Z,3.56
2023-01-17T12:17:11.519Z,3.73
2023-01-17T12:20:04.756Z,3.94
2023-01-17T12:23:13.759Z,4.10
2023-01-17T12:26:10.247Z,3.87
2023-01-17T12:29:20.135Z,3.71
2023-01-17T12:32:08.169Z,3.64
2023-01-17T12:34:47.039Z,3.63
2023-01-17T12:37:25.342Z,3.80
2023-01-17T12:40:02.820Z,3.81
2023-01-17T12:42:40.644Z,3.91
2023-01-17T12:45:21.451Z,3.79
2023-01-17T12:47:58.974Z,3.84
2023-01-17T12:50:36.936Z,3.89
2023-01-17T12:53:19.590Z,3.88
2023-01-17T12:55:57.512Z,3.97
2023-01-17T12:58:29.535Z,3.94
2023-01-17T13:01:15.531Z,3.89
2023-01-17T13:04:00.241Z,3.94
2023-01-17T13:06:37.050Z,4.02
2023-01-17T13:09:06.850Z,4.10
2023-01-17T13:11:46.470Z,4.04
2023-01-17T13:14:14.240Z,4.20
2023-01-17T13:16:56.946Z,4.23
2023-01-17T13:19:46.529Z,4.30
2023-01-17T13:22:17.492Z,4.45
2023-01-17T13:24:56.949Z,4.31
2023-01-17T13:28:08.306Z,4.25
2023-01-17T13:30:56.850Z,4.09
2023-01-17T13:33:42.015Z,4.05
2023-01-17T13:36:34.982Z,3.91
2023-01-17T13:39:27.120Z,3.85
2023-01-17T13:42:12.835Z,3.79
2023-01-17T13:44:40.812Z,3.90
2023-01-17T13:47:41.529Z,3.90
2023-01-17T13:50:50.646Z,3.96
2023-01-17T13:53:58.951Z,4.02
2023-01-17T13:56:37.171Z,4.03
2023-01-17T13:59:38.331Z,3.95
2023-01-17T14:02:39.294Z,4.03
2023-01-17T14:05:12.370Z,4.09
2023-01-17T14:07:49.585Z,4.16
2023-01-17T14:10:30.754Z,4.20
2023-01-17T14:12:59.276Z,4.12
2023-01-17T14:15:29.253Z,4.15
2023-01-17T14:18:04.047Z,4.13
2023-01-17T14:21:11.569Z,4.04
2023-01-17T14:24:04.753Z,3.98
2023-01-17T14:26:42.353Z,3.92
2023-01-17T14:29:58.430Z,3.99
2023-01-17T14:32:32.028Z,3.82
2023-01-17T14:35:01.976Z,3.77
2023-01-17T14:37:46.660Z,3.85
2023-01-17T14:40:20.177Z,3.86
2023-01-17T14:42:58.743Z,4.01
2023-01-17T14:45:30.640Z,4.06
2023-01-17T14:48:00.729Z,4.09
2023-01-17T14:50:36.721Z,4.03
2023-01-17T14:53:17.499Z,3.95
2023-01-17T14:56:01.823Z,3.85
2023-01-17T14:58:32.423Z,3.82
2023-01-17T15:01:03.969Z,3.79
2023-01-17T15:03:42.903Z,3.77
2023-01-17T15:06:19.805Z,3.80
2023-01-17T15:08:49.959Z,3.89
2023-01-17T15:11:25.130Z,3.91
2023-01-17T15:13:59.084Z,3.88
2023-01-17T15:16:30.119Z,3.63
2023-01-17T15:18:59.586Z,3.58
2023-01-17T15:21:35.419Z,3.45
2023-01-17T15:24:08.389Z,3.32
2023-01-17T15:26:42.064Z,3.14
2023-01-17T15:29:20.953Z,3.06
2023-01-17T15:31:52.212Z,3.02
2023-01-17T15:34:28.772Z,3.04
2023-01-17T15:37:01.387Z,3.11
2023-01-17T15:39:32.815Z,3.11
2023-01-17T15:42:05.725Z,3.05
2023-01-17T15:44:53.389Z,3.17
2023-01-17T15:47:33.889Z,3.02
2023-01-17T15:50:25.726Z,2.84
2023-01-17T15:52:57.937Z,2.65
2023-01-17T15:55:32.272Z,2.76
2023-01-17T15:58:00.921Z,2.73
2023-01-17T16:00:37.562Z,2.86
2023-01-17T16:03:23.853Z,2.95
2023-01-17T16:05:54.230Z,2.96
2023-01-17T16:08:39.352Z,2.95
2023-01-17T16:11:11.551Z,2.87
2023-01-17T16:13:42.210Z,2.93
2023-01-17T16:16:18.113Z,2.92
2023-01-17T16:18:48.072Z,2.86
2023-01-17T16:21:26.041Z,2.86
2023-01-17T16:23:56.380Z,2.86
2023-01-17T16:26:25.127Z,2.85
2023-01-17T16:28:53.418Z,2.84
2023-01-17T16:31:21.645Z,2.75
2023-01-17T16:33:51.715Z,2.86
2023-01-17T16:36:21.345Z,2.89
2023-01-17T16:38:52.026Z,2.89
2023-01-17T16:41:22.095Z,2.87
2023-01-17T16:44:01.096Z,2.87
2023-01-17T16:46:29.984Z,2.65
2023-01-17T16:49:01.193Z,2.67
2023-01-17T16:51:29.207Z,2.67
2023-01-17T16:53:58.109Z,2.63
2023-01-17T16:56:27.518Z,2.50
2023-01-17T16:58:56.205Z,2.29
2023-01-17T17:01:25.244Z,2.27
2023-01-17T17:03:53.386Z,2.20
2023-01-17T17:06:21.352Z,2.14
2023-01-17T17:08:49.239Z,2.13
2023-01-17T17:11:20.187Z,2.10
2023-01-17T17:13:51.608Z,2.03
2023-01-17T17:16:23.189Z,2.06
2023-01-17T17:18:57.771Z,2.02
2023-01-17T17:21:26.413Z,1.98
2023-01-17T17:23:58.100Z,1.89
2023-01-17T17:26:28.955Z,2.00
2023-01-17T17:28:59.079Z,2.05
2023-01-17T17:31:27.629Z,2.03
2023-01-17T17:33:59.631Z,2.00
2023-01-17T17:36:27.749Z,1.99
2023-01-17T17:38:57.552Z,2.41
2023-01-17T17:41:29.093Z,2.16
2023-01-17T17:43:59.269Z,2.07
2023-01-17T17:46:29.118Z,1.92
2023-01-17T17:48:58.670Z,1.91
2023-01-17T17:51:28.165Z,1.89
2023-01-17T17:54:00.800Z,1.77
2023-01-17T17:56:30.811Z,1.85
2023-01-17T17:59:02.273Z,1.68
2023-01-17T18:01:31.106Z,1.68
2023-01-17T18:04:03.627Z,1.64
2023-01-17T18:06:31.778Z,1.58
2023-01-17T18:08:59.671Z,1.56
2023-01-17T18:11:29.629Z,1.43
2023-01-17T18:14:05.601Z,1.46
2023-01-17T18:16:36.604Z,1.45
2023-01-17T18:19:06.542Z,1.37
2023-01-17T18:21:37.918Z,1.33
2023-01-17T18:24:09.348Z,1.24
2023-01-17T18:26:39.923Z,1.23
2023-01-17T18:29:14.680Z,1.23
2023-01-17T18:31:47.532Z,1.16
2023-01-17T18:34:17.884Z,1.23
2023-01-17T18:36:46.253Z,1.40
2023-01-17T18:39:17.015Z,1.58
2023-01-17T18:41:45.745Z,1.29
2023-01-17T18:44:15.156Z,1.12
2023-01-17T18:46:43.212Z,0.99
2023-01-17T18:49:12.885Z,0.95
2023-01-17T18:51:41.133Z,0.96
2023-01-17T18:54:09.631Z,0.91
2023-01-17T18:56:37.544Z,0.88
2023-01-17T18:59:07.297Z,0.89
2023-01-17T19:01:37.409Z,0.88
2023-01-17T19:04:06.860Z,0.89
2023-01-17T19:06:36.900Z,1.18
2023-01-17T19:09:06.331Z,1.56
2023-01-17T19:11:36.188Z,1.61
2023-01-17T19:14:04.629Z,1.08
2023-01-17T19:16:41.325Z,1.01
2023-01-17T19:19:13.756Z,1.27
2023-01-17T19:21:41.731Z,1.11
2023-01-17T19:24:13.116Z,1.16
2023-01-17T19:26:41.525Z,1.63
2023-01-17T19:29:10.145Z,1.62
2023-01-17T19:31:42.972Z,1.62
2023-01-17T19:34:13.839Z,1.27
2023-01-17T19:36:41.990Z,1.33
2023-01-17T19:39:11.017Z,1.36
2023-01-17T19:41:43.691Z,1.20
2023-01-17T19:44:13.820Z,1.00
2023-01-17T19:46:43.966Z,1.13
2023-01-17T19:49:11.954Z,1.03
2023-01-17T19:51:40.744Z,0.77
2023-01-17T19:54:12.185Z,0.86
2023-01-17T19:56:45.475Z,0.89
2023-01-17T19:59:21.251Z,0.96
2023-01-17T20:01:58.589Z,1.48
2023-01-17T20:04:40.875Z,2.01
2023-01-17T20:07:14.271Z,1.20
2023-01-17T20:09:49.714Z,0.76
2023-01-17T20:12:23.666Z,0.61
2023-01-17T20:14:58.897Z,0.49
2023-01-17T20:17:34.591Z,0.37
2023-01-17T20:20:08.149Z,0.38
2023-01-17T20:22:43.759Z,0.28
2023-01-17T20:25:16.331Z,0.30
2023-01-17T20:27:48.897Z,0.18
2023-01-17T20:30:20.391Z,0.12
2023-01-17T20:32:51.120Z,0.06
2023-01-17T20:35:19.103Z,-0.01
2023-01-17T20:37:52.198Z,-0.06
2023-01-17T20:40:20.407Z,-0.08
2023-01-17T20:42:48.363Z,-0.11
2023-01-17T20:45:16.443Z,-0.06
2023-01-17T20:47:44.578Z,0.09
2023-01-17T20:50:13.974Z,0.29
2023-01-17T20:52:41.927Z,0.33
2023-01-17T20:55:10.568Z,0.32
2023-01-17T20:57:38.525Z,0.14
2023-01-17T21:00:08.657Z,-0.05
2023-01-17T21:02:36.716Z,-0.11
2023-01-17T21:05:05.493Z,-0.15
2023-01-17T21:07:42.326Z,-0.14
2023-01-17T21:10:11.849Z,-0.13
2023-01-17T21:12:39.617Z,-0.06
2023-01-17T21:15:10.364Z,-0.11
2023-01-17T21:17:42.151Z,-0.13
2023-01-17T21:20:13.819Z,-0.11
2023-01-17T21:22:43.409Z,-0.12
2023-01-17T21:25:11.349Z,-0.15
2023-01-17T21:27:39.268Z,-0.13
2023-01-17T21:30:09.819Z,-0.15
2023-01-17T21:32:37.699Z,-0.11
2023-01-17T21:35:07.712Z,-0.14
2023-01-17T21:37:36.439Z,-0.19
2023-01-17T21:40:06.992Z,-0.17
2023-01-17T21:42:34.946Z,-0.19
2023-01-17T21:45:02.908Z,-0.21
2023-01-17T21:47:31.068Z,-0.20
2023-01-17T21:49:59.027Z,-0.23
2023-01-17T21:52:27.067Z,-0.19
2023-01-17T21:55:12.780Z,-0.20
2023-01-17T21:57:59.641Z,-0.30
2023-01-17T22:00:27.686Z,-0.44
2023-01-17T22:02:58.078Z,-0.46
2023-01-17T22:05:26.891Z,-0.52
2023-01-17T22:08:14.341Z,-0.47
2023-01-17T22:10:45.789Z,-0.44
2023-01-17T22:13:17.571Z,-0.46
2023-01-17T22:15:47.054Z,-0.43
2023-01-17T22:18:15.918Z,-0.39
2023-01-17T22:20:44.004Z,-0.36
2023-01-17T22:23:12.516Z,-0.32
2023-01-17T22:25:40.888Z,-0.42
2023-01-17T22:28:09.297Z,-0.45
2023-01-17T22:30:38.601Z,-0.47
2023-01-17T22:33:06.533Z,-0.48
2023-01-17T22:35:34.537Z,-0.52
2023-01-17T22:38:02.527Z,-0.45
2023-01-17T22:40:32.549Z,-0.43
2023-01-17T22:43:00.532Z,-0.47
2023-01-17T22:45:28.975Z,-0.51
2023-01-17T22:47:58.269Z,-0.50
2023-01-17T22:50:26.157Z,-0.53
2023-01-17T22:52:54.157Z,-0.64
2023-01-17T22:55:22.259Z,-0.64
2023-01-17T22:57:50.323Z,-0.66
2023-01-17T23:00:19.009Z,-0.50
2023-01-17T23:02:47.071Z,-0.43
2023-01-17T23:05:16.521Z,-0.30
2023-01-17T23:07:44.356Z,-0.21
2023-01-17T23:10:34.875Z,-0.20
2023-01-17T23:13:02.909Z,-0.23
2023-01-17T23:15:48.570Z,-0.24
2023-01-17T23:18:33.950Z,-0.29
2023-01-17T23:21:03.405Z,-0.28
2023-01-17T23:23:32.951Z,-0.46
2023-01-17T23:26:01.400Z,-0.50
2023-01-17T23:28:28.331Z,-0.52
2023-01-17T23:31:03.615Z,-0.76
2023-01-17T23:33:31.621Z,-0.70
2023-01-17T23:35:59.717Z,-0.60
2023-01-17T23:38:33.923Z,-0.54
2023-01-17T23:41:22.301Z,-0.73
2023-01-17T23:43:54.858Z,-0.74
2023-01-17T23:46:23.908Z,-0.71
2023-01-17T23:48:52.290Z,-0.68
2023-01-17T23:51:20.331Z,-0.66
2023-01-17T23:53:52.091Z,-0.62
2023-01-17T23:56:24.619Z,-0.70
2023-01-17T23:58:52.529Z,-0.76
